Weather at Seven Bar Airport / Alameda Airport [CLOSED]

Public forecast

Using degrees Fahrenheit for public forecast. Weather courtesy of forecast.io.

Closest aviation weather report (METAR) to Seven Bar Airport / Alameda Airport

Closest report is Double Eagle II Airport, 7.4 nm (13.7 km) WSW.

2024/07/16 18:47 (retrieved 28 minutes ago)

KAEG 161847Z 16006KT 10SM CLR 33/06 A3019 RMK TCU DSNT ALQDS

Closest aviation forecast (TAF) to Seven Bar Airport / Alameda Airport

Closest forecast is Double Eagle II Airport, 7.4 nm (13.7 km) WSW.

2024/07/16 18:30 (retrieved 45 minutes ago)

TAF KAEG 161727Z 1618/1718 18008KT P6SM FEW150 FM162200 16010G18KT P6SM VCSH BKN120 FM170300 02011KT P6SM SCT100 FM170700 06008KT P6SM SCT080